sensor_id;sensor_type;location;lat;lon;timestamp;temperature;humidity
55121;DHT22;41019;48.512;9.036;2023-06-22T00:01:42;22.30;95.50
55121;DHT22;41019;48.512;9.036;2023-06-22T00:04:08;22.30;95.50
55121;DHT22;41019;48.512;9.036;2023-06-22T00:06:34;22.20;95.80
55121;DHT22;41019;48.512;9.036;2023-06-22T00:08:59;22.20;95.80
55121;DHT22;41019;48.512;9.036;2023-06-22T00:11:26;22.10;95.80
55121;DHT22;41019;48.512;9.036;2023-06-22T00:13:52;22.00;96.10
55121;DHT22;41019;48.512;9.036;2023-06-22T00:16:18;22.00;96.30
55121;DHT22;41019;48.512;9.036;2023-06-22T00:18:44;21.90;96.40
55121;DHT22;41019;48.512;9.036;2023-06-22T00:21:13;21.90;96.50
55121;DHT22;41019;48.512;9.036;2023-06-22T00:23:38;21.90;96.50
55121;DHT22;41019;48.512;9.036;2023-06-22T00:26:04;21.80;96.50
55121;DHT22;41019;48.512;9.036;2023-06-22T00:28:30;21.80;96.60
55121;DHT22;41019;48.512;9.036;2023-06-22T00:30:56;21.80;97.00
55121;DHT22;41019;48.512;9.036;2023-06-22T00:33:23;21.70;97.20
55121;DHT22;41019;48.512;9.036;2023-06-22T00:35:49;21.70;97.20
55121;DHT22;41019;48.512;9.036;2023-06-22T00:38:18;21.60;97.00
55121;DHT22;41019;48.512;9.036;2023-06-22T00:40:45;21.60;97.00
55121;DHT22;41019;48.512;9.036;2023-06-22T00:43:11;21.60;97.00
55121;DHT22;41019;48.512;9.036;2023-06-22T00:45:38;21.50;97.60
55121;DHT22;41019;48.512;9.036;2023-06-22T00:48:05;21.40;97.80
55121;DHT22;41019;48.512;9.036;2023-06-22T00:50:35;21.40;97.60
55121;DHT22;41019;48.512;9.036;2023-06-22T00:53:07;21.40;97.60
55121;DHT22;41019;48.512;9.036;2023-06-22T00:55:41;21.30;97.60
55121;DHT22;41019;48.512;9.036;2023-06-22T00:58:13;21.30;98.00
55121;DHT22;41019;48.512;9.036;2023-06-22T01:00:41;21.20;98.00
55121;DHT22;41019;48.512;9.036;2023-06-22T01:03:07;21.20;97.90
55121;DHT22;41019;48.512;9.036;2023-06-22T01:05:38;21.20;98.10
55121;DHT22;41019;48.512;9.036;2023-06-22T01:11:16;21.10;98.40
55121;DHT22;41019;48.512;9.036;2023-06-22T01:13:54;21.10;98.40
55121;DHT22;41019;48.512;9.036;2023-06-22T01:16:36;21.00;98.40
55121;DHT22;41019;48.512;9.036;2023-06-22T01:19:35;20.90;98.60
55121;DHT22;41019;48.512;9.036;2023-06-22T01:22:05;20.90;98.50
55121;DHT22;41019;48.512;9.036;2023-06-22T01:30:19;20.70;98.50
55121;DHT22;41019;48.512;9.036;2023-06-22T01:32:45;20.70;98.50
55121;DHT22;41019;48.512;9.036;2023-06-22T01:35:12;20.60;98.50
55121;DHT22;41019;48.512;9.036;2023-06-22T01:37:39;20.60;98.60
55121;DHT22;41019;48.512;9.036;2023-06-22T01:40:08;20.60;98.80
55121;DHT22;41019;48.512;9.036;2023-06-22T01:42:36;20.60;98.90
55121;DHT22;41019;48.512;9.036;2023-06-22T01:45:03;20.50;98.90
55121;DHT22;41019;48.512;9.036;2023-06-22T01:47:30;20.50;98.80
55121;DHT22;41019;48.512;9.036;2023-06-22T01:49:57;20.50;98.70
55121;DHT22;41019;48.512;9.036;2023-06-22T01:52:23;20.50;98.80
55121;DHT22;41019;48.512;9.036;2023-06-22T01:54:49;20.50;98.80
55121;DHT22;41019;48.512;9.036;2023-06-22T01:57:15;20.40;98.80
55121;DHT22;41019;48.512;9.036;2023-06-22T02:00:03;20.40;99.10
55121;DHT22;41019;48.512;9.036;2023-06-22T02:05:24;20.40;99.30
55121;DHT22;41019;48.512;9.036;2023-06-22T02:08:00;20.30;99.20
55121;DHT22;41019;48.512;9.036;2023-06-22T02:10:32;20.30;99.20
55121;DHT22;41019;48.512;9.036;2023-06-22T02:13:01;20.30;99.30
55121;DHT22;41019;48.512;9.036;2023-06-22T02:15:28;20.30;99.70
55121;DHT22;41019;48.512;9.036;2023-06-22T02:17:55;20.20;99.60
55121;DHT22;41019;48.512;9.036;2023-06-22T02:20:21;20.20;99.60
55121;DHT22;41019;48.512;9.036;2023-06-22T02:22:49;20.20;99.50
55121;DHT22;41019;48.512;9.036;2023-06-22T02:25:15;20.20;99.60
55121;DHT22;41019;48.512;9.036;2023-06-22T02:27:41;20.20;99.70
55121;DHT22;41019;48.512;9.036;2023-06-22T02:30:09;20.20;99.70
55121;DHT22;41019;48.512;9.036;2023-06-22T02:32:35;20.20;99.70
55121;DHT22;41019;48.512;9.036;2023-06-22T02:35:02;20.10;99.80
55121;DHT22;41019;48.512;9.036;2023-06-22T02:37:32;20.10;99.80
55121;DHT22;41019;48.512;9.036;2023-06-22T02:39:58;20.10;99.70
55121;DHT22;41019;48.512;9.036;2023-06-22T02:42:24;20.10;99.80
55121;DHT22;41019;48.512;9.036;2023-06-22T02:44:49;20.00;99.90
55121;DHT22;41019;48.512;9.036;2023-06-22T02:47:15;20.00;99.70
55121;DHT22;41019;48.512;9.036;2023-06-22T02:49:41;20.00;99.80
55121;DHT22;41019;48.512;9.036;2023-06-22T02:52:08;20.00;99.90
55121;DHT22;41019;48.512;9.036;2023-06-22T02:54:34;20.00;99.90
55121;DHT22;41019;48.512;9.036;2023-06-22T02:57:00;20.00;99.90
55121;DHT22;41019;48.512;9.036;2023-06-22T02:59:29;19.90;99.90
55121;DHT22;41019;48.512;9.036;2023-06-22T03:02:01;19.90;99.90
55121;DHT22;41019;48.512;9.036;2023-06-22T03:04:31;19.90;99.90
55121;DHT22;41019;48.512;9.036;2023-06-22T03:06:57;19.90;99.80
55121;DHT22;41019;48.512;9.036;2023-06-22T03:09:28;19.80;99.90
55121;DHT22;41019;48.512;9.036;2023-06-22T03:11:56;19.80;99.90
55121;DHT22;41019;48.512;9.036;2023-06-22T03:14:25;19.80;99.90
55121;DHT22;41019;48.512;9.036;2023-06-22T03:16:53;19.80;99.90
55121;DHT22;41019;48.512;9.036;2023-06-22T03:19:19;19.70;99.90
55121;DHT22;41019;48.512;9.036;2023-06-22T03:21:47;19.70;99.90
55121;DHT22;41019;48.512;9.036;2023-06-22T03:24:13;19.70;99.90
55121;DHT22;41019;48.512;9.036;2023-06-22T03:26:39;19.70;99.90
55121;DHT22;41019;48.512;9.036;2023-06-22T03:29:05;19.70;99.90
55121;DHT22;41019;48.512;9.036;2023-06-22T03:31:33;19.70;99.90
55121;DHT22;41019;48.512;9.036;2023-06-22T03:33:59;19.60;99.90
55121;DHT22;41019;48.512;9.036;2023-06-22T03:36:25;19.70;99.90
55121;DHT22;41019;48.512;9.036;2023-06-22T03:38:52;19.60;99.90
55121;DHT22;41019;48.512;9.036;2023-06-22T03:41:18;19.60;99.90
55121;DHT22;41019;48.512;9.036;2023-06-22T03:43:43;19.60;99.90
55121;DHT22;41019;48.512;9.036;2023-06-22T03:46:09;19.60;99.90
55121;DHT22;41019;48.512;9.036;2023-06-22T03:48:35;19.60;99.90
55121;DHT22;41019;48.512;9.036;2023-06-22T03:51:02;19.60;99.90
55121;DHT22;41019;48.512;9.036;2023-06-22T03:53:29;19.50;99.90
55121;DHT22;41019;48.512;9.036;2023-06-22T03:55:55;19.60;99.90
55121;DHT22;41019;48.512;9.036;2023-06-22T03:58:22;19.50;99.90
55121;DHT22;41019;48.512;9.036;2023-06-22T04:00:49;19.50;99.90
55121;DHT22;41019;48.512;9.036;2023-06-22T04:03:16;19.50;99.90
55121;DHT22;41019;48.512;9.036;2023-06-22T04:05:44;19.50;99.90
55121;DHT22;41019;48.512;9.036;2023-06-22T04:08:13;19.60;99.90
55121;DHT22;41019;48.512;9.036;2023-06-22T04:10:39;19.50;99.90
55121;DHT22;41019;48.512;9.036;2023-06-22T04:13:05;19.50;99.90
55121;DHT22;41019;48.512;9.036;2023-06-22T04:15:31;19.50;99.90
55121;DHT22;41019;48.512;9.036;2023-06-22T04:17:57;19.50;99.90
55121;DHT22;41019;48.512;9.036;2023-06-22T04:20:23;19.50;99.90
55121;DHT22;41019;48.512;9.036;2023-06-22T04:22:54;19.50;99.90
55121;DHT22;41019;48.512;9.036;2023-06-22T04:25:21;19.50;99.90
55121;DHT22;41019;48.512;9.036;2023-06-22T04:27:48;19.60;99.90
55121;DHT22;41019;48.512;9.036;2023-06-22T04:30:14;19.60;99.90
55121;DHT22;41019;48.512;9.036;2023-06-22T04:32:42;19.60;99.90
55121;DHT22;41019;48.512;9.036;2023-06-22T04:35:09;19.70;99.90
55121;DHT22;41019;48.512;9.036;2023-06-22T04:37:34;19.70;99.90
55121;DHT22;41019;48.512;9.036;2023-06-22T04:40:00;19.80;99.90
55121;DHT22;41019;48.512;9.036;2023-06-22T04:42:26;19.80;99.90
55121;DHT22;41019;48.512;9.036;2023-06-22T04:44:53;19.80;99.90
55121;DHT22;41019;48.512;9.036;2023-06-22T04:47:19;19.90;99.90
55121;DHT22;41019;48.512;9.036;2023-06-22T04:49:45;19.90;99.90
55121;DHT22;41019;48.512;9.036;2023-06-22T04:52:13;19.90;99.90
55121;DHT22;41019;48.512;9.036;2023-06-22T04:54:45;20.00;99.90
55121;DHT22;41019;48.512;9.036;2023-06-22T04:57:14;20.00;99.90
55121;DHT22;41019;48.512;9.036;2023-06-22T04:59:41;20.10;99.90
55121;DHT22;41019;48.512;9.036;2023-06-22T05:02:08;20.20;99.90
55121;DHT22;41019;48.512;9.036;2023-06-22T05:04:34;20.20;99.90
55121;DHT22;41019;48.512;9.036;2023-06-22T05:07:04;20.30;99.90
55121;DHT22;41019;48.512;9.036;2023-06-22T05:09:30;20.30;99.90
55121;DHT22;41019;48.512;9.036;2023-06-22T05:11:57;20.30;99.90
55121;DHT22;41019;48.512;9.036;2023-06-22T05:14:23;20.40;99.90
55121;DHT22;41019;48.512;9.036;2023-06-22T05:16:49;20.50;99.90
55121;DHT22;41019;48.512;9.036;2023-06-22T05:19:15;20.50;99.90
55121;DHT22;41019;48.512;9.036;2023-06-22T05:21:41;20.60;99.90
55121;DHT22;41019;48.512;9.036;2023-06-22T05:24:07;20.70;99.90
55121;DHT22;41019;48.512;9.036;2023-06-22T05:26:34;20.70;99.90
55121;DHT22;41019;48.512;9.036;2023-06-22T05:29:02;20.80;99.90
55121;DHT22;41019;48.512;9.036;2023-06-22T05:31:29;20.90;99.90
55121;DHT22;41019;48.512;9.036;2023-06-22T05:33:55;21.00;99.70
55121;DHT22;41019;48.512;9.036;2023-06-22T05:36:22;21.00;99.50
55121;DHT22;41019;48.512;9.036;2023-06-22T05:38:52;21.20;99.40
55121;DHT22;41019;48.512;9.036;2023-06-22T05:41:18;21.20;99.40
55121;DHT22;41019;48.512;9.036;2023-06-22T05:43:44;21.30;99.10
55121;DHT22;41019;48.512;9.036;2023-06-22T05:46:10;21.40;99.00
55121;DHT22;41019;48.512;9.036;2023-06-22T05:48:36;21.40;98.90
55121;DHT22;41019;48.512;9.036;2023-06-22T05:51:02;21.50;98.80
55121;DHT22;41019;48.512;9.036;2023-06-22T05:53:28;21.60;99.00
55121;DHT22;41019;48.512;9.036;2023-06-22T05:55:54;21.70;98.90
55121;DHT22;41019;48.512;9.036;2023-06-22T05:58:19;21.70;98.70
55121;DHT22;41019;48.512;9.036;2023-06-22T06:00:45;21.80;98.60
55121;DHT22;41019;48.512;9.036;2023-06-22T06:03:12;21.90;98.40
55121;DHT22;41019;48.512;9.036;2023-06-22T06:05:43;21.90;98.10
55121;DHT22;41019;48.512;9.036;2023-06-22T06:08:09;22.00;98.20
55121;DHT22;41019;48.512;9.036;2023-06-22T06:10:37;22.10;98.30
55121;DHT22;41019;48.512;9.036;2023-06-22T06:13:03;22.10;97.90
55121;DHT22;41019;48.512;9.036;2023-06-22T06:15:30;22.20;98.10
55121;DHT22;41019;48.512;9.036;2023-06-22T06:17:56;22.30;97.90
55121;DHT22;41019;48.512;9.036;2023-06-22T06:20:24;22.40;97.80
55121;DHT22;41019;48.512;9.036;2023-06-22T06:22:50;22.50;97.40
55121;DHT22;41019;48.512;9.036;2023-06-22T06:25:18;22.60;97.30
55121;DHT22;41019;48.512;9.036;2023-06-22T06:27:46;22.70;97.10
55121;DHT22;41019;48.512;9.036;2023-06-22T06:30:14;22.70;97.00
55121;DHT22;41019;48.512;9.036;2023-06-22T06:32:41;22.80;97.00
55121;DHT22;41019;48.512;9.036;2023-06-22T06:35:09;22.90;96.40
55121;DHT22;41019;48.512;9.036;2023-06-22T06:37:40;23.00;96.10
55121;DHT22;41019;48.512;9.036;2023-06-22T06:40:10;23.20;95.70
55121;DHT22;41019;48.512;9.036;2023-06-22T06:42:37;23.40;96.00
55121;DHT22;41019;48.512;9.036;2023-06-22T06:45:06;23.60;95.10
55121;DHT22;41019;48.512;9.036;2023-06-22T06:47:32;23.80;94.40
55121;DHT22;41019;48.512;9.036;2023-06-22T06:49:58;24.00;93.90
55121;DHT22;41019;48.512;9.036;2023-06-22T06:52:25;24.10;93.70
55121;DHT22;41019;48.512;9.036;2023-06-22T06:54:51;24.30;93.50
55121;DHT22;41019;48.512;9.036;2023-06-22T06:57:18;24.50;93.10
55121;DHT22;41019;48.512;9.036;2023-06-22T06:59:46;24.70;92.90
55121;DHT22;41019;48.512;9.036;2023-06-22T07:02:11;24.90;92.40
55121;DHT22;41019;48.512;9.036;2023-06-22T07:04:38;25.00;91.80
55121;DHT22;41019;48.512;9.036;2023-06-22T07:07:04;25.20;91.40
55121;DHT22;41019;48.512;9.036;2023-06-22T07:09:30;25.30;91.30
55121;DHT22;41019;48.512;9.036;2023-06-22T07:11:56;25.50;90.60
55121;DHT22;41019;48.512;9.036;2023-06-22T07:14:22;25.70;90.30
55121;DHT22;41019;48.512;9.036;2023-06-22T07:16:48;25.80;89.60
55121;DHT22;41019;48.512;9.036;2023-06-22T07:19:14;25.90;88.50
55121;DHT22;41019;48.512;9.036;2023-06-22T07:21:40;26.10;88.40
55121;DHT22;41019;48.512;9.036;2023-06-22T07:24:06;26.30;86.70
55121;DHT22;41019;48.512;9.036;2023-06-22T07:26:33;26.50;87.40
55121;DHT22;41019;48.512;9.036;2023-06-22T07:28:59;26.70;87.40
55121;DHT22;41019;48.512;9.036;2023-06-22T07:31:26;26.90;85.80
55121;DHT22;41019;48.512;9.036;2023-06-22T07:33:51;27.10;84.80
55121;DHT22;41019;48.512;9.036;2023-06-22T07:36:18;27.30;83.40
55121;DHT22;41019;48.512;9.036;2023-06-22T07:38:44;27.60;82.20
55121;DHT22;41019;48.512;9.036;2023-06-22T07:41:10;27.70;80.60
55121;DHT22;41019;48.512;9.036;2023-06-22T07:43:36;27.80;79.80
55121;DHT22;41019;48.512;9.036;2023-06-22T07:46:03;28.00;79.70
55121;DHT22;41019;48.512;9.036;2023-06-22T07:48:29;28.20;80.00
55121;DHT22;41019;48.512;9.036;2023-06-22T07:50:55;28.30;78.80
55121;DHT22;41019;48.512;9.036;2023-06-22T07:53:21;28.50;77.90
55121;DHT22;41019;48.512;9.036;2023-06-22T07:55:49;28.60;77.00
55121;DHT22;41019;48.512;9.036;2023-06-22T07:58:15;28.70;76.90
55121;DHT22;41019;48.512;9.036;2023-06-22T08:00:41;28.80;75.60
55121;DHT22;41019;48.512;9.036;2023-06-22T08:03:07;28.90;76.00
55121;DHT22;41019;48.512;9.036;2023-06-22T08:05:33;29.10;76.60
55121;DHT22;41019;48.512;9.036;2023-06-22T08:07:59;29.30;77.50
55121;DHT22;41019;48.512;9.036;2023-06-22T08:10:25;29.40;75.20
55121;DHT22;41019;48.512;9.036;2023-06-22T08:12:52;29.50;76.10
55121;DHT22;41019;48.512;9.036;2023-06-22T08:15:18;29.60;75.30
55121;DHT22;41019;48.512;9.036;2023-06-22T08:17:45;29.70;75.20
55121;DHT22;41019;48.512;9.036;2023-06-22T08:20:14;29.80;74.30
55121;DHT22;41019;48.512;9.036;2023-06-22T08:22:41;29.80;74.40
55121;DHT22;41019;48.512;9.036;2023-06-22T08:25:08;29.90;74.40
55121;DHT22;41019;48.512;9.036;2023-06-22T08:27:34;29.90;74.10
55121;DHT22;41019;48.512;9.036;2023-06-22T08:30:01;30.10;74.00
55121;DHT22;41019;48.512;9.036;2023-06-22T08:32:28;30.10;74.20
55121;DHT22;41019;48.512;9.036;2023-06-22T08:34:55;30.30;73.10
55121;DHT22;41019;48.512;9.036;2023-06-22T08:37:21;30.40;72.70
55121;DHT22;41019;48.512;9.036;2023-06-22T08:39:49;30.40;72.70
55121;DHT22;41019;48.512;9.036;2023-06-22T08:42:16;30.50;73.20
55121;DHT22;41019;48.512;9.036;2023-06-22T08:44:42;30.50;72.80
55121;DHT22;41019;48.512;9.036;2023-06-22T08:47:08;30.40;72.20
55121;DHT22;41019;48.512;9.036;2023-06-22T08:49:34;30.30;71.80
55121;DHT22;41019;48.512;9.036;2023-06-22T08:52:00;30.30;71.80
55121;DHT22;41019;48.512;9.036;2023-06-22T08:54:25;30.20;72.70
55121;DHT22;41019;48.512;9.036;2023-06-22T08:56:51;30.30;72.40
55121;DHT22;41019;48.512;9.036;2023-06-22T08:59:17;30.40;72.90
55121;DHT22;41019;48.512;9.036;2023-06-22T09:01:44;30.60;72.70
55121;DHT22;41019;48.512;9.036;2023-06-22T09:04:11;30.70;70.70
55121;DHT22;41019;48.512;9.036;2023-06-22T09:06:37;30.90;71.90
55121;DHT22;41019;48.512;9.036;2023-06-22T09:09:12;31.00;71.00
55121;DHT22;41019;48.512;9.036;2023-06-22T09:11:38;31.10;71.40
55121;DHT22;41019;48.512;9.036;2023-06-22T09:14:04;31.30;70.40
55121;DHT22;41019;48.512;9.036;2023-06-22T09:16:30;31.30;70.10
55121;DHT22;41019;48.512;9.036;2023-06-22T09:18:55;31.50;69.10
55121;DHT22;41019;48.512;9.036;2023-06-22T09:21:21;31.60;69.90
55121;DHT22;41019;48.512;9.036;2023-06-22T09:23:47;31.70;69.20
55121;DHT22;41019;48.512;9.036;2023-06-22T09:26:18;31.70;69.40
55121;DHT22;41019;48.512;9.036;2023-06-22T09:28:43;31.90;68.20
55121;DHT22;41019;48.512;9.036;2023-06-22T09:31:09;32.00;69.30
55121;DHT22;41019;48.512;9.036;2023-06-22T09:33:36;32.20;68.10
55121;DHT22;41019;48.512;9.036;2023-06-22T09:36:05;32.30;67.60
55121;DHT22;41019;48.512;9.036;2023-06-22T09:38:39;32.50;68.20
55121;DHT22;41019;48.512;9.036;2023-06-22T09:41:05;32.70;67.50
55121;DHT22;41019;48.512;9.036;2023-06-22T09:43:32;32.80;66.20
55121;DHT22;41019;48.512;9.036;2023-06-22T09:46:00;32.90;66.10
55121;DHT22;41019;48.512;9.036;2023-06-22T09:48:28;33.10;66.50
55121;DHT22;41019;48.512;9.036;2023-06-22T09:50:55;33.20;65.20
55121;DHT22;41019;48.512;9.036;2023-06-22T09:53:21;33.30;64.00
55121;DHT22;41019;48.512;9.036;2023-06-22T09:55:47;33.20;64.20
55121;DHT22;41019;48.512;9.036;2023-06-22T09:58:13;33.20;63.40
55121;DHT22;41019;48.512;9.036;2023-06-22T10:00:39;33.20;64.40
55121;DHT22;41019;48.512;9.036;2023-06-22T10:03:07;33.20;64.80
55121;DHT22;41019;48.512;9.036;2023-06-22T10:05:33;33.20;64.90
55121;DHT22;41019;48.512;9.036;2023-06-22T10:07:59;33.20;63.60
55121;DHT22;41019;48.512;9.036;2023-06-22T10:10:25;33.30;63.20
55121;DHT22;41019;48.512;9.036;2023-06-22T10:12:56;33.50;63.20
55121;DHT22;41019;48.512;9.036;2023-06-22T10:15:23;33.60;61.90
55121;DHT22;41019;48.512;9.036;2023-06-22T10:17:49;33.60;61.50
55121;DHT22;41019;48.512;9.036;2023-06-22T10:20:15;33.70;62.10
55121;DHT22;41019;48.512;9.036;2023-06-22T10:22:44;33.80;62.10
55121;DHT22;41019;48.512;9.036;2023-06-22T10:25:12;33.60;61.80
55121;DHT22;41019;48.512;9.036;2023-06-22T10:27:38;33.60;61.70
55121;DHT22;41019;48.512;9.036;2023-06-22T10:30:08;33.70;62.10
55121;DHT22;41019;48.512;9.036;2023-06-22T10:32:34;33.60;61.90
55121;DHT22;41019;48.512;9.036;2023-06-22T10:35:00;33.70;62.60
55121;DHT22;41019;48.512;9.036;2023-06-22T10:37:26;33.50;61.70
55121;DHT22;41019;48.512;9.036;2023-06-22T10:39:52;33.40;62.40
55121;DHT22;41019;48.512;9.036;2023-06-22T10:42:18;33.60;61.70
55121;DHT22;41019;48.512;9.036;2023-06-22T10:44:44;33.60;61.90
55121;DHT22;41019;48.512;9.036;2023-06-22T10:47:10;33.60;62.30
55121;DHT22;41019;48.512;9.036;2023-06-22T10:49:38;33.60;61.90
55121;DHT22;41019;48.512;9.036;2023-06-22T10:52:06;33.60;62.00
55121;DHT22;41019;48.512;9.036;2023-06-22T10:54:37;33.70;62.30
55121;DHT22;41019;48.512;9.036;2023-06-22T10:57:03;33.70;61.70
55121;DHT22;41019;48.512;9.036;2023-06-22T10:59:29;33.70;61.40
55121;DHT22;41019;48.512;9.036;2023-06-22T11:01:55;33.70;62.00
55121;DHT22;41019;48.512;9.036;2023-06-22T11:04:22;33.60;61.90
55121;DHT22;41019;48.512;9.036;2023-06-22T11:06:49;33.50;61.40
55121;DHT22;41019;48.512;9.036;2023-06-22T11:09:15;33.60;61.80
55121;DHT22;41019;48.512;9.036;2023-06-22T11:11:49;33.60;61.70
55121;DHT22;41019;48.512;9.036;2023-06-22T11:14:16;33.60;61.60
55121;DHT22;41019;48.512;9.036;2023-06-22T11:16:42;33.60;61.80
55121;DHT22;41019;48.512;9.036;2023-06-22T11:19:08;33.50;61.50
55121;DHT22;41019;48.512;9.036;2023-06-22T11:21:34;33.50;61.60
55121;DHT22;41019;48.512;9.036;2023-06-22T11:24:00;33.50;61.70
55121;DHT22;41019;48.512;9.036;2023-06-22T11:26:26;33.60;62.40
55121;DHT22;41019;48.512;9.036;2023-06-22T11:28:55;33.50;62.10
55121;DHT22;41019;48.512;9.036;2023-06-22T11:31:21;33.50;62.40
55121;DHT22;41019;48.512;9.036;2023-06-22T11:33:47;33.50;62.10
55121;DHT22;41019;48.512;9.036;2023-06-22T11:36:14;33.40;62.00
55121;DHT22;41019;48.512;9.036;2023-06-22T11:38:42;33.40;63.20
55121;DHT22;41019;48.512;9.036;2023-06-22T11:41:09;33.40;62.60
55121;DHT22;41019;48.512;9.036;2023-06-22T11:43:36;33.50;62.60
55121;DHT22;41019;48.512;9.036;2023-06-22T11:46:04;33.50;62.60
55121;DHT22;41019;48.512;9.036;2023-06-22T11:48:30;33.40;62.00
55121;DHT22;41019;48.512;9.036;2023-06-22T11:50:56;33.60;62.30
55121;DHT22;41019;48.512;9.036;2023-06-22T11:53:25;33.60;62.20
55121;DHT22;41019;48.512;9.036;2023-06-22T11:55:52;33.60;63.90
55121;DHT22;41019;48.512;9.036;2023-06-22T11:58:20;33.60;63.20
55121;DHT22;41019;48.512;9.036;2023-06-22T12:00:45;33.50;63.10
55121;DHT22;41019;48.512;9.036;2023-06-22T12:03:11;33.40;63.40
55121;DHT22;41019;48.512;9.036;2023-06-22T12:05:38;33.40;62.80
55121;DHT22;41019;48.512;9.036;2023-06-22T12:08:04;33.40;62.70
55121;DHT22;41019;48.512;9.036;2023-06-22T12:10:30;33.20;63.40
55121;DHT22;41019;48.512;9.036;2023-06-22T12:12:56;33.20;63.00
55121;DHT22;41019;48.512;9.036;2023-06-22T12:15:26;33.00;62.80
55121;DHT22;41019;48.512;9.036;2023-06-22T12:17:52;33.00;62.60
55121;DHT22;41019;48.512;9.036;2023-06-22T12:20:19;32.90;63.40
55121;DHT22;41019;48.512;9.036;2023-06-22T12:22:45;32.80;64.50
55121;DHT22;41019;48.512;9.036;2023-06-22T12:25:11;32.70;64.50
55121;DHT22;41019;48.512;9.036;2023-06-22T12:27:37;32.60;65.10
55121;DHT22;41019;48.512;9.036;2023-06-22T12:30:04;32.50;64.50
55121;DHT22;41019;48.512;9.036;2023-06-22T12:32:30;32.40;65.40
55121;DHT22;41019;48.512;9.036;2023-06-22T12:34:56;32.30;65.40
55121;DHT22;41019;48.512;9.036;2023-06-22T12:37:23;32.20;65.30
55121;DHT22;41019;48.512;9.036;2023-06-22T12:39:49;32.30;65.70
55121;DHT22;41019;48.512;9.036;2023-06-22T12:42:16;32.30;65.60
55121;DHT22;41019;48.512;9.036;2023-06-22T12:44:41;32.30;66.70
55121;DHT22;41019;48.512;9.036;2023-06-22T12:47:09;32.30;66.40
55121;DHT22;41019;48.512;9.036;2023-06-22T12:49:35;32.20;66.30
55121;DHT22;41019;48.512;9.036;2023-06-22T12:52:02;32.30;67.10
55121;DHT22;41019;48.512;9.036;2023-06-22T12:54:29;32.20;67.80
55121;DHT22;41019;48.512;9.036;2023-06-22T12:56:57;32.20;67.30
55121;DHT22;41019;48.512;9.036;2023-06-22T12:59:24;32.20;67.60
55121;DHT22;41019;48.512;9.036;2023-06-22T13:01:50;32.20;66.50
55121;DHT22;41019;48.512;9.036;2023-06-22T13:04:16;32.10;66.80
55121;DHT22;41019;48.512;9.036;2023-06-22T13:06:42;32.20;67.70
55121;DHT22;41019;48.512;9.036;2023-06-22T13:09:10;32.30;67.30
55121;DHT22;41019;48.512;9.036;2023-06-22T13:11:35;32.50;66.80
55121;DHT22;41019;48.512;9.036;2023-06-22T13:14:02;32.60;67.40
55121;DHT22;41019;48.512;9.036;2023-06-22T13:16:27;32.70;66.40
55121;DHT22;41019;48.512;9.036;2023-06-22T13:18:53;32.80;67.00
55121;DHT22;41019;48.512;9.036;2023-06-22T13:21:20;32.90;66.50
55121;DHT22;41019;48.512;9.036;2023-06-22T13:23:45;33.00;66.50
55121;DHT22;41019;48.512;9.036;2023-06-22T13:26:11;33.10;66.40
55121;DHT22;41019;48.512;9.036;2023-06-22T13:28:37;33.30;65.30
55121;DHT22;41019;48.512;9.036;2023-06-22T13:31:02;33.40;64.70
55121;DHT22;41019;48.512;9.036;2023-06-22T13:33:28;33.60;64.30
55121;DHT22;41019;48.512;9.036;2023-06-22T13:35:54;33.70;64.00
55121;DHT22;41019;48.512;9.036;2023-06-22T13:38:20;33.90;64.10
55121;DHT22;41019;48.512;9.036;2023-06-22T13:40:46;33.90;62.50
55121;DHT22;41019;48.512;9.036;2023-06-22T13:43:13;33.90;62.70
55121;DHT22;41019;48.512;9.036;2023-06-22T13:45:39;33.90;62.30
55121;DHT22;41019;48.512;9.036;2023-06-22T13:48:05;33.90;63.10
55121;DHT22;41019;48.512;9.036;2023-06-22T13:50:31;33.90;62.50
55121;DHT22;41019;48.512;9.036;2023-06-22T13:52:57;33.90;63.60
55121;DHT22;41019;48.512;9.036;2023-06-22T13:55:23;33.80;63.80
55121;DHT22;41019;48.512;9.036;2023-06-22T13:57:49;33.70;62.70
55121;DHT22;41019;48.512;9.036;2023-06-22T14:00:15;33.60;62.80
55121;DHT22;41019;48.512;9.036;2023-06-22T14:02:42;33.50;63.40
55121;DHT22;41019;48.512;9.036;2023-06-22T14:05:08;33.40;63.60
55121;DHT22;41019;48.512;9.036;2023-06-22T14:07:34;33.30;63.90
55121;DHT22;41019;48.512;9.036;2023-06-22T14:10:01;33.20;64.30
55121;DHT22;41019;48.512;9.036;2023-06-22T14:12:26;33.20;64.60
55121;DHT22;41019;48.512;9.036;2023-06-22T14:14:52;33.20;64.60
55121;DHT22;41019;48.512;9.036;2023-06-22T14:17:18;33.20;64.50
55121;DHT22;41019;48.512;9.036;2023-06-22T14:19:49;33.30;66.10
55121;DHT22;41019;48.512;9.036;2023-06-22T14:22:19;33.50;66.60
55121;DHT22;41019;48.512;9.036;2023-06-22T14:24:46;33.60;64.60
55121;DHT22;41019;48.512;9.036;2023-06-22T14:27:11;33.80;64.80
55121;DHT22;41019;48.512;9.036;2023-06-22T14:29:37;33.90;64.20
55121;DHT22;41019;48.512;9.036;2023-06-22T14:32:04;34.10;63.90
55121;DHT22;41019;48.512;9.036;2023-06-22T14:34:32;34.40;64.00
55121;DHT22;41019;48.512;9.036;2023-06-22T14:36:58;34.50;63.80
55121;DHT22;41019;48.512;9.036;2023-06-22T14:39:24;34.80;64.40
55121;DHT22;41019;48.512;9.036;2023-06-22T14:41:50;34.90;63.00
55121;DHT22;41019;48.512;9.036;2023-06-22T14:44:16;35.00;62.80
55121;DHT22;41019;48.512;9.036;2023-06-22T14:46:42;34.90;62.10
55121;DHT22;41019;48.512;9.036;2023-06-22T14:49:08;34.90;60.70
55121;DHT22;41019;48.512;9.036;2023-06-22T14:51:34;34.80;59.60
55121;DHT22;41019;48.512;9.036;2023-06-22T14:53:59;34.80;59.90
55121;DHT22;41019;48.512;9.036;2023-06-22T14:56:25;34.90;58.50
55121;DHT22;41019;48.512;9.036;2023-06-22T14:58:51;34.80;53.90
55121;DHT22;41019;48.512;9.036;2023-06-22T15:01:17;34.70;53.00
55121;DHT22;41019;48.512;9.036;2023-06-22T15:03:44;34.60;52.10
55121;DHT22;41019;48.512;9.036;2023-06-22T15:06:09;34.60;54.00
55121;DHT22;41019;48.512;9.036;2023-06-22T15:08:37;34.50;51.80
55121;DHT22;41019;48.512;9.036;2023-06-22T15:11:04;34.50;51.80
55121;DHT22;41019;48.512;9.036;2023-06-22T15:13:31;34.40;49.80
55121;DHT22;41019;48.512;9.036;2023-06-22T15:16:03;34.20;49.00
55121;DHT22;41019;48.512;9.036;2023-06-22T15:18:29;33.90;49.20
55121;DHT22;41019;48.512;9.036;2023-06-22T15:20:55;33.80;47.80
55121;DHT22;41019;48.512;9.036;2023-06-22T15:23:21;33.70;47.60
55121;DHT22;41019;48.512;9.036;2023-06-22T15:25:47;33.60;47.40
55121;DHT22;41019;48.512;9.036;2023-06-22T15:28:14;33.50;47.50
55121;DHT22;41019;48.512;9.036;2023-06-22T15:30:40;33.30;47.00
55121;DHT22;41019;48.512;9.036;2023-06-22T15:33:06;33.20;46.30
55121;DHT22;41019;48.512;9.036;2023-06-22T15:35:32;33.00;46.90
55121;DHT22;41019;48.512;9.036;2023-06-22T15:37:57;32.90;46.00
55121;DHT22;41019;48.512;9.036;2023-06-22T15:40:24;32.80;46.10